createdAt,value
2022-11-03T00:01:40.101Z,23.70
2022-11-03T00:04:10.027Z,20.90
2022-11-03T00:06:39.061Z,21.10
2022-11-03T00:09:08.864Z,25.60
2022-11-03T00:11:38.378Z,28.30
2022-11-03T00:14:07.342Z,28.80
2022-11-03T00:16:36.282Z,24.60
2022-11-03T00:19:05.000Z,26.50
2022-11-03T00:21:33.555Z,26.70
2022-11-03T00:24:05.275Z,27.10
2022-11-03T00:26:34.610Z,24.70
2022-11-03T00:29:10.366Z,24.40
2022-11-03T00:31:39.919Z,27.80
2022-11-03T00:34:08.575Z,25.60
2022-11-03T00:36:38.212Z,22.90
2022-11-03T00:39:06.933Z,22.30
2022-11-03T00:41:35.718Z,25.10
2022-11-03T00:44:04.168Z,20.20
2022-11-03T00:46:35.869Z,20.10
2022-11-03T00:49:05.335Z,19.50
2022-11-03T00:51:35.294Z,21.80
2022-11-03T00:54:05.064Z,21.80
2022-11-03T00:56:34.882Z,24.80
2022-11-03T00:59:03.613Z,23.40
2022-11-03T01:01:42.186Z,20.50
2022-11-03T01:04:31.708Z,20.50
2022-11-03T01:07:01.400Z,21.40
2022-11-03T01:09:31.014Z,19.50
2022-11-03T01:12:01.386Z,20.10
2022-11-03T01:14:34.348Z,19.60
2022-11-03T01:17:05.273Z,20.20
2022-11-03T01:19:33.620Z,18.10
2022-11-03T01:22:05.170Z,16.70
2022-11-03T01:24:36.253Z,17.60
2022-11-03T01:27:04.682Z,19.30
2022-11-03T01:29:33.037Z,17.10
2022-11-03T01:32:01.288Z,16.80
2022-11-03T01:34:29.648Z,16.80
2022-11-03T01:36:57.930Z,16.70
2022-11-03T01:39:26.331Z,17.60
2022-11-03T01:41:54.708Z,17.30
2022-11-03T01:44:23.095Z,16.80
2022-11-03T01:47:01.236Z,17.50
2022-11-03T01:49:32.388Z,17.10
2022-11-03T01:52:06.674Z,20.40
2022-11-03T01:54:37.446Z,21.70
2022-11-03T01:57:12.055Z,18.50
2022-11-03T01:59:40.467Z,18.70
2022-11-03T02:02:09.202Z,17.70
2022-11-03T02:04:37.753Z,17.40
2022-11-03T02:07:17.319Z,18.40
2022-11-03T02:09:45.554Z,16.80
2022-11-03T02:12:14.868Z,17.70
2022-11-03T02:14:50.621Z,17.20
2022-11-03T02:17:20.346Z,16.10
2022-11-03T02:19:56.511Z,18.40
2022-11-03T02:22:34.193Z,15.50
2022-11-03T02:25:02.570Z,18.90
2022-11-03T02:27:30.948Z,17.80
2022-11-03T02:30:00.495Z,15.90
2022-11-03T02:32:35.323Z,17.00
2022-11-03T02:35:19.716Z,17.60
2022-11-03T02:40:19.559Z,17.60
2022-11-03T02:42:51.375Z,18.00
2022-11-03T02:45:21.848Z,17.80
2022-11-03T02:47:51.532Z,22.10
2022-11-03T02:50:22.311Z,21.70
2022-11-03T02:52:53.113Z,17.70
2022-11-03T02:55:21.357Z,18.20
2022-11-03T02:58:09.908Z,18.60
2022-11-03T03:00:43.461Z,17.00
2022-11-03T03:03:14.743Z,17.50
2022-11-03T03:05:44.756Z,17.90
2022-11-03T03:08:13.572Z,16.80
2022-11-03T03:10:44.009Z,17.60
2022-11-03T03:13:15.105Z,16.90
2022-11-03T03:15:48.302Z,17.00
2022-11-03T03:18:22.536Z,16.50
2022-11-03T03:21:02.812Z,15.20
2022-11-03T03:23:34.491Z,17.40
2022-11-03T03:26:11.327Z,16.40
2022-11-03T03:28:39.555Z,17.20
2022-11-03T03:31:09.918Z,18.00
2022-11-03T03:33:41.962Z,19.30
2022-11-03T03:36:14.915Z,18.80
2022-11-03T03:38:46.554Z,18.30
2022-11-03T03:41:22.351Z,19.00
2022-11-03T03:43:52.570Z,22.90
2022-11-03T03:46:22.236Z,22.00
2022-11-03T03:48:50.678Z,19.80
2022-11-03T03:51:21.236Z,21.00
2022-11-03T03:53:53.675Z,22.10
2022-11-03T03:56:26.063Z,21.10
2022-11-03T03:58:54.385Z,22.50
2022-11-03T04:01:22.726Z,24.90
2022-11-03T04:03:51.094Z,26.00
2022-11-03T04:06:19.339Z,25.30
2022-11-03T04:08:47.721Z,22.70
2022-11-03T04:11:34.659Z,19.00
2022-11-03T04:14:21.641Z,23.20
2022-11-03T04:17:08.728Z,22.10
2022-11-03T04:19:55.953Z,19.70
2022-11-03T04:22:25.396Z,18.40
2022-11-03T04:24:53.749Z,17.00
2022-11-03T04:27:28.204Z,19.50
2022-11-03T04:29:57.718Z,17.50
2022-11-03T04:32:26.209Z,17.80
2022-11-03T04:34:54.782Z,17.60
2022-11-03T04:37:23.042Z,17.00
2022-11-03T04:39:51.423Z,15.70
2022-11-03T04:42:21.358Z,14.00
2022-11-03T04:44:50.168Z,15.60
2022-11-03T04:47:18.757Z,15.50
2022-11-03T04:49:47.765Z,15.40
2022-11-03T04:52:22.479Z,15.00
2022-11-03T04:54:52.612Z,14.10
2022-11-03T04:57:20.904Z,15.60
2022-11-03T04:59:51.100Z,15.60
2022-11-03T05:02:20.596Z,15.40
2022-11-03T05:04:48.965Z,13.70
2022-11-03T05:07:31.432Z,14.50
2022-11-03T05:09:59.995Z,14.80
2022-11-03T05:12:29.827Z,14.00
2022-11-03T05:14:58.945Z,13.40
2022-11-03T05:17:28.289Z,15.40
2022-11-03T05:20:03.975Z,18.70
2022-11-03T05:22:36.844Z,19.90
2022-11-03T05:25:25.111Z,19.10
2022-11-03T05:27:53.414Z,19.90
2022-11-03T05:30:21.777Z,19.80
2022-11-03T05:32:50.127Z,21.40
2022-11-03T05:35:22.874Z,20.10
2022-11-03T05:37:51.228Z,21.00
2022-11-03T05:40:24.472Z,21.20
2022-11-03T05:43:02.641Z,21.70
2022-11-03T05:45:34.651Z,21.40
2022-11-03T05:48:10.977Z,20.90
2022-11-03T05:50:41.090Z,20.40
2022-11-03T05:53:18.513Z,18.10
2022-11-03T05:55:47.016Z,19.00
2022-11-03T05:58:19.569Z,17.40
2022-11-03T06:00:48.927Z,18.80
2022-11-03T06:03:20.074Z,18.40
2022-11-03T06:05:48.443Z,19.20
2022-11-03T06:08:20.303Z,19.30
2022-11-03T06:10:50.375Z,19.90
2022-11-03T06:13:34.345Z,21.20
2022-11-03T06:16:04.593Z,18.90
2022-11-03T06:18:35.926Z,18.00
2022-11-03T06:21:12.311Z,19.10
2022-11-03T06:23:41.510Z,19.20
2022-11-03T06:26:14.891Z,20.10
2022-11-03T06:28:43.323Z,21.80
2022-11-03T06:31:21.922Z,22.30
2022-11-03T06:33:52.386Z,21.50
2022-11-03T06:36:25.515Z,21.80
2022-11-03T06:38:58.450Z,19.60
2022-11-03T06:41:28.397Z,17.30
2022-11-03T06:43:58.271Z,17.30
2022-11-03T06:46:26.921Z,15.40
2022-11-03T06:48:58.964Z,15.70
2022-11-03T06:51:28.139Z,15.50
2022-11-03T06:54:00.795Z,14.60
2022-11-03T06:56:32.014Z,13.60
2022-11-03T06:59:01.261Z,13.10
2022-11-03T07:01:33.955Z,12.00
2022-11-03T07:04:16.629Z,10.90
2022-11-03T07:06:49.088Z,10.70
2022-11-03T07:09:28.507Z,9.70
2022-11-03T07:12:01.177Z,9.50
2022-11-03T07:14:31.934Z,9.90
2022-11-03T07:17:02.892Z,9.10
2022-11-03T07:19:34.902Z,8.90
2022-11-03T07:22:05.317Z,8.10
2022-11-03T07:24:46.266Z,7.70
2022-11-03T07:27:21.398Z,8.20
2022-11-03T07:29:51.060Z,7.80
2022-11-03T07:32:20.428Z,8.60
2022-11-03T07:34:49.437Z,8.10
2022-11-03T07:37:20.446Z,8.30
2022-11-03T07:40:35.634Z,9.00
2022-11-03T07:43:30.587Z,8.10
2022-11-03T07:46:00.529Z,9.10
2022-11-03T07:48:36.451Z,9.80
2022-11-03T07:51:17.215Z,9.30
2022-11-03T07:53:50.345Z,10.60
2022-11-03T07:56:41.692Z,8.10
2022-11-03T07:59:10.196Z,9.10
2022-11-03T08:01:41.889Z,8.60
2022-11-03T08:04:17.473Z,8.80
2022-11-03T08:06:48.785Z,8.70
2022-11-03T08:09:17.383Z,8.20
2022-11-03T08:11:46.340Z,8.30
2022-11-03T08:14:14.681Z,8.10
2022-11-03T08:16:43.040Z,8.00
2022-11-03T08:19:11.833Z,7.90
2022-11-03T08:21:40.108Z,7.80
2022-11-03T08:24:08.514Z,7.30
2022-11-03T08:26:36.827Z,8.50
2022-11-03T08:29:05.233Z,8.50
2022-11-03T08:31:33.669Z,9.40
2022-11-03T08:34:01.991Z,10.00
2022-11-03T08:36:30.373Z,11.80
2022-11-03T08:38:58.716Z,13.00
2022-11-03T08:41:27.164Z,12.70
2022-11-03T08:43:55.528Z,13.20
2022-11-03T08:46:23.913Z,13.70
2022-11-03T08:48:52.371Z,13.20
2022-11-03T08:51:20.802Z,11.30
2022-11-03T08:53:54.384Z,11.90
2022-11-03T08:56:23.024Z,10.90
2022-11-03T08:58:51.467Z,10.40
2022-11-03T09:01:20.369Z,10.20
2022-11-03T09:03:48.814Z,11.00
2022-11-03T09:06:17.176Z,10.10
2022-11-03T09:11:34.988Z,9.70
2022-11-03T09:14:04.259Z,16.20
2022-11-03T09:16:32.729Z,34.50
2022-11-03T09:19:01.087Z,27.50
2022-11-03T09:21:29.520Z,14.10
2022-11-03T09:23:59.733Z,11.30
2022-11-03T09:26:28.109Z,11.00
2022-11-03T09:28:56.488Z,7.90
2022-11-03T09:31:28.671Z,7.10
2022-11-03T09:33:57.030Z,7.10
2022-11-03T09:36:25.318Z,6.30
2022-11-03T09:38:53.759Z,7.10
2022-11-03T09:41:27.667Z,6.60
2022-11-03T09:44:04.130Z,6.30
2022-11-03T09:46:32.523Z,6.90
2022-11-03T09:49:01.488Z,7.50
2022-11-03T09:51:29.831Z,6.00
2022-11-03T09:53:59.448Z,5.30
2022-11-03T09:56:28.069Z,5.90
2022-11-03T09:58:56.479Z,5.90
2022-11-03T10:01:25.254Z,5.60
2022-11-03T10:04:01.392Z,5.30
2022-11-03T10:06:29.725Z,5.90
2022-11-03T10:08:58.015Z,5.90
2022-11-03T10:11:26.460Z,4.90
2022-11-03T10:13:56.679Z,6.00
2022-11-03T10:16:26.600Z,5.50
2022-11-03T10:18:55.032Z,5.20
2022-11-03T10:21:23.358Z,5.50
2022-11-03T10:23:51.777Z,5.50
2022-11-03T10:26:20.401Z,5.40
2022-11-03T10:28:58.107Z,5.60
2022-11-03T10:31:32.290Z,4.40
2022-11-03T10:34:00.782Z,5.10
2022-11-03T10:36:30.316Z,4.80
2022-11-03T10:38:59.125Z,5.70
2022-11-03T10:41:28.749Z,4.50
2022-11-03T10:44:22.907Z,4.90
2022-11-03T10:47:01.727Z,5.20
2022-11-03T10:49:36.512Z,4.70
2022-11-03T10:52:18.874Z,4.90
2022-11-03T10:54:48.072Z,4.80
2022-11-03T10:57:17.296Z,5.80
2022-11-03T10:59:48.002Z,5.00
2022-11-03T11:02:24.476Z,4.20
2022-11-03T11:04:59.547Z,5.10
2022-11-03T11:07:39.320Z,5.00
2022-11-03T11:10:21.543Z,5.10
2022-11-03T11:13:06.008Z,5.00
2022-11-03T11:15:40.736Z,5.10
2022-11-03T11:18:09.844Z,5.30
2022-11-03T11:20:41.951Z,4.60
2022-11-03T11:23:31.756Z,5.30
2022-11-03T11:26:14.450Z,4.30
2022-11-03T11:28:42.938Z,4.80
2022-11-03T11:31:26.769Z,5.30
2022-11-03T11:34:10.838Z,5.20
2022-11-03T11:36:40.739Z,4.60
2022-11-03T11:39:24.574Z,5.40
2022-11-03T11:42:13.442Z,4.60
2022-11-03T11:44:53.035Z,5.30
2022-11-03T11:47:27.398Z,4.50
2022-11-03T11:50:12.712Z,6.10
2022-11-03T11:52:46.151Z,14.90
2022-11-03T11:55:29.409Z,5.10
2022-11-03T11:57:59.857Z,6.10
2022-11-03T12:00:30.052Z,6.90
2022-11-03T12:02:59.845Z,8.00
2022-11-03T12:05:32.383Z,5.80
2022-11-03T12:08:00.749Z,12.50
2022-11-03T12:10:30.452Z,25.80
2022-11-03T12:13:00.279Z,7.30
2022-11-03T12:15:51.703Z,7.50
2022-11-03T12:18:53.194Z,6.10
2022-11-03T12:21:39.933Z,5.80
2022-11-03T12:24:28.730Z,7.50
2022-11-03T12:26:57.493Z,8.50
2022-11-03T12:29:26.269Z,5.10
2022-11-03T12:31:54.682Z,4.70
2022-11-03T12:34:23.048Z,4.30
2022-11-03T12:36:55.949Z,4.10
2022-11-03T12:39:24.958Z,3.30
2022-11-03T12:41:53.265Z,4.50
2022-11-03T12:44:21.695Z,4.10
2022-11-03T12:46:49.944Z,4.50
2022-11-03T12:49:18.655Z,3.70
2022-11-03T12:51:47.142Z,4.60
2022-11-03T12:54:15.475Z,3.80
2022-11-03T12:56:44.398Z,3.30
2022-11-03T12:59:12.860Z,3.50
2022-11-03T13:01:41.285Z,3.80
2022-11-03T13:04:09.851Z,3.50
2022-11-03T13:06:38.270Z,3.70
2022-11-03T13:09:06.711Z,3.40
2022-11-03T13:11:53.734Z,3.70
2022-11-03T13:14:22.011Z,3.50
2022-11-03T13:16:50.665Z,4.00
2022-11-03T13:19:19.056Z,3.70
2022-11-03T13:21:47.394Z,3.80
2022-11-03T13:24:15.941Z,3.80
2022-11-03T13:26:44.324Z,3.60
2022-11-03T13:29:13.122Z,4.20
2022-11-03T13:31:41.572Z,3.70
2022-11-03T13:34:09.920Z,2.80
2022-11-03T13:36:38.362Z,3.00
2022-11-03T13:39:06.797Z,3.30
2022-11-03T13:41:35.172Z,3.30
2022-11-03T13:44:03.662Z,2.80
2022-11-03T13:46:31.977Z,3.50
2022-11-03T13:51:48.744Z,4.00
2022-11-03T13:59:53.832Z,3.10
2022-11-03T14:05:11.681Z,2.60
2022-11-03T14:07:40.244Z,3.50
2022-11-03T14:10:08.677Z,3.30
2022-11-03T14:12:37.197Z,3.10
2022-11-03T14:15:07.562Z,2.90
2022-11-03T14:17:36.474Z,3.20
2022-11-03T14:20:05.408Z,3.80
2022-11-03T14:22:34.160Z,3.20
2022-11-03T14:25:02.491Z,3.30
2022-11-03T14:27:31.008Z,3.30
2022-11-03T14:29:59.367Z,3.30
2022-11-03T14:32:27.748Z,3.60
2022-11-03T14:34:56.175Z,3.80
2022-11-03T14:37:25.880Z,3.20
2022-11-03T14:39:54.392Z,4.40
2022-11-03T14:42:22.868Z,4.10
2022-11-03T14:47:26.003Z,4.60
2022-11-03T14:49:54.356Z,3.90
2022-11-03T14:52:22.656Z,3.80
2022-11-03T14:54:52.466Z,4.50
2022-11-03T14:57:20.739Z,4.40
2022-11-03T14:59:53.223Z,4.30
2022-11-03T15:02:22.356Z,4.60
2022-11-03T15:04:50.844Z,7.60
2022-11-03T15:07:19.167Z,6.70
2022-11-03T15:09:47.617Z,7.20
2022-11-03T15:12:15.939Z,8.10
2022-11-03T15:14:44.459Z,6.40
2022-11-03T15:17:12.715Z,7.30
2022-11-03T15:19:41.119Z,11.30
2022-11-03T15:22:09.667Z,9.00
2022-11-03T15:27:26.297Z,6.80
2022-11-03T15:29:54.603Z,8.30
2022-11-03T15:32:22.918Z,10.90
2022-11-03T15:34:51.280Z,10.30
2022-11-03T15:37:20.330Z,13.60
2022-11-03T15:39:48.616Z,11.40
2022-11-03T15:42:17.715Z,11.20
2022-11-03T15:44:45.963Z,11.80
2022-11-03T15:47:14.343Z,9.20
2022-11-03T15:49:42.644Z,9.20
2022-11-03T15:52:11.036Z,12.90
2022-11-03T15:54:42.379Z,11.90
2022-11-03T15:57:15.452Z,10.20
2022-11-03T15:59:43.971Z,8.40
2022-11-03T16:02:35.647Z,8.30
2022-11-03T16:05:02.997Z,6.80
2022-11-03T16:07:32.197Z,7.70
2022-11-03T16:10:01.586Z,8.10
2022-11-03T16:12:30.165Z,7.00
2022-11-03T16:14:59.207Z,7.60
2022-11-03T16:17:27.581Z,6.80
2022-11-03T16:19:56.409Z,6.90
2022-11-03T16:22:25.106Z,7.40
2022-11-03T16:24:53.772Z,7.90
2022-11-03T16:27:22.583Z,7.30
2022-11-03T16:29:53.151Z,7.30
2022-11-03T16:32:22.436Z,8.20
2022-11-03T16:34:51.245Z,7.40
2022-11-03T16:37:20.573Z,7.90
2022-11-03T16:39:51.832Z,6.80
2022-11-03T16:42:20.975Z,10.90
2022-11-03T16:44:49.945Z,7.00
2022-11-03T16:47:18.281Z,8.70
2022-11-03T16:49:46.826Z,6.70
2022-11-03T16:52:15.530Z,7.20
2022-11-03T16:54:44.503Z,7.30
2022-11-03T16:57:13.696Z,7.40
2022-11-03T16:59:42.013Z,7.10
2022-11-03T17:02:15.960Z,17.20
2022-11-03T17:04:44.840Z,11.50
2022-11-03T17:07:13.392Z,7.40
2022-11-03T17:09:42.191Z,7.80
2022-11-03T17:12:11.967Z,11.30
2022-11-03T17:14:40.698Z,10.90
2022-11-03T17:17:09.031Z,9.80
2022-11-03T17:19:37.950Z,10.20
2022-11-03T17:22:06.455Z,10.80
2022-11-03T17:24:34.919Z,10.70
2022-11-03T17:27:06.924Z,9.60
2022-11-03T17:29:38.055Z,16.20
2022-11-03T17:32:20.029Z,17.00
2022-11-03T17:34:48.883Z,12.10
2022-11-03T17:37:17.382Z,8.60
2022-11-03T17:39:46.544Z,11.80
2022-11-03T17:42:15.637Z,12.50
2022-11-03T17:44:44.847Z,10.10
2022-11-03T17:47:14.084Z,9.80
2022-11-03T17:49:43.379Z,9.60
2022-11-03T17:52:19.099Z,10.10
2022-11-03T17:54:52.786Z,11.90
2022-11-03T17:57:22.572Z,11.50
2022-11-03T17:59:53.105Z,9.20
2022-11-03T18:02:23.584Z,8.30
2022-11-03T18:05:21.539Z,8.10
2022-11-03T18:07:51.313Z,8.30
2022-11-03T18:10:20.177Z,8.40
2022-11-03T18:13:08.682Z,9.20
2022-11-03T18:15:38.972Z,8.20
2022-11-03T18:18:19.368Z,10.00
2022-11-03T18:20:53.432Z,8.40
2022-11-03T18:23:27.127Z,11.00
2022-11-03T18:25:56.125Z,10.00
2022-11-03T18:28:25.721Z,13.40
2022-11-03T18:30:55.935Z,8.00
2022-11-03T18:33:25.370Z,8.10
2022-11-03T18:35:54.694Z,7.80
2022-11-03T18:38:24.492Z,8.90
2022-11-03T18:40:54.625Z,8.40
2022-11-03T18:43:24.635Z,37.30
2022-11-03T18:45:55.275Z,14.90
2022-11-03T18:48:28.261Z,8.40
2022-11-03T18:50:57.482Z,8.30
2022-11-03T18:53:27.393Z,7.70
2022-11-03T18:56:13.932Z,10.20
2022-11-03T18:58:44.145Z,7.90
2022-11-03T19:01:22.405Z,8.30
2022-11-03T19:03:53.606Z,7.30
2022-11-03T19:06:28.098Z,7.40
2022-11-03T19:09:00.175Z,8.50
2022-11-03T19:11:29.617Z,7.30
2022-11-03T19:13:58.811Z,7.00
2022-11-03T19:16:28.705Z,9.00
2022-11-03T19:18:58.091Z,9.20
2022-11-03T19:21:31.699Z,11.20
2022-11-03T19:24:01.972Z,9.60
2022-11-03T19:26:36.686Z,9.70
2022-11-03T19:29:09.880Z,8.80
2022-11-03T19:31:42.215Z,8.80
2022-11-03T19:34:19.427Z,7.30
2022-11-03T19:36:50.164Z,8.30
2022-11-03T19:39:19.195Z,8.50
2022-11-03T19:42:07.479Z,8.50
2022-11-03T19:44:37.511Z,8.10
2022-11-03T19:47:07.610Z,8.80
2022-11-03T19:49:37.088Z,9.10
2022-11-03T19:52:12.532Z,9.30
2022-11-03T19:54:43.171Z,8.30
2022-11-03T19:57:13.732Z,8.70
2022-11-03T19:59:46.736Z,8.40
2022-11-03T20:02:16.478Z,8.90
2022-11-03T20:04:47.490Z,7.60
2022-11-03T20:07:18.068Z,7.50
2022-11-03T20:09:48.619Z,7.80
2022-11-03T20:12:21.452Z,8.70
2022-11-03T20:14:51.261Z,8.00
2022-11-03T20:17:23.529Z,8.50
2022-11-03T20:19:53.832Z,8.20
2022-11-03T20:22:28.837Z,7.70
2022-11-03T20:25:00.624Z,8.20
2022-11-03T20:27:29.550Z,8.30
2022-11-03T20:30:01.596Z,7.80
2022-11-03T20:32:31.365Z,7.60
2022-11-03T20:35:01.539Z,7.90
2022-11-03T20:37:31.001Z,8.10
2022-11-03T20:40:00.502Z,8.90
2022-11-03T20:42:31.297Z,7.70
2022-11-03T20:44:59.996Z,9.30
2022-11-03T20:47:29.610Z,7.60
2022-11-03T20:49:58.087Z,8.70
2022-11-03T20:52:26.738Z,8.00
2022-11-03T20:54:55.367Z,9.30
2022-11-03T20:57:26.644Z,8.70
2022-11-03T20:59:55.999Z,8.50
2022-11-03T21:02:25.393Z,9.20
2022-11-03T21:04:55.050Z,8.30
2022-11-03T21:07:24.957Z,9.40
2022-11-03T21:09:54.422Z,9.20
2022-11-03T21:12:23.470Z,8.30
2022-11-03T21:15:11.328Z,9.20
2022-11-03T21:17:58.253Z,7.80
2022-11-03T21:20:27.196Z,7.50
2022-11-03T21:22:56.468Z,8.00
2022-11-03T21:25:25.276Z,8.60
2022-11-03T21:27:55.229Z,8.40
2022-11-03T21:30:24.238Z,9.40
2022-11-03T21:32:54.329Z,8.90
2022-11-03T21:35:23.257Z,7.10
2022-11-03T21:37:51.920Z,8.80
2022-11-03T21:40:20.288Z,8.20
2022-11-03T21:43:07.159Z,8.20
2022-11-03T21:45:36.337Z,8.90
2022-11-03T21:48:23.774Z,9.50
2022-11-03T21:50:52.496Z,9.20
2022-11-03T21:53:20.994Z,8.80
2022-11-03T21:55:50.451Z,8.20
2022-11-03T21:58:18.869Z,8.50
2022-11-03T22:00:47.591Z,8.60
2022-11-03T22:03:16.178Z,8.70
2022-11-03T22:05:44.521Z,9.00
2022-11-03T22:08:13.103Z,9.00
2022-11-03T22:10:41.510Z,9.40
2022-11-03T22:13:10.415Z,9.60
2022-11-03T22:15:58.166Z,9.20
2022-11-03T22:18:26.526Z,8.60
2022-11-03T22:21:16.324Z,7.90
2022-11-03T22:24:03.490Z,8.50
2022-11-03T22:26:50.552Z,9.40
2022-11-03T22:29:37.878Z,9.20
2022-11-03T22:32:13.149Z,8.90
2022-11-03T22:35:00.029Z,9.10
2022-11-03T22:40:15.685Z,8.50
2022-11-03T22:43:02.979Z,8.90
2022-11-03T22:45:50.029Z,9.30
2022-11-03T22:48:18.836Z,8.40
2022-11-03T22:50:47.187Z,7.90
2022-11-03T22:53:34.161Z,8.70
2022-11-03T22:56:02.747Z,8.70
2022-11-03T22:58:31.163Z,7.90
2022-11-03T23:01:08.195Z,8.40
2022-11-03T23:03:38.022Z,8.50
2022-11-03T23:06:08.051Z,7.50
2022-11-03T23:08:37.164Z,8.60
2022-11-03T23:11:06.573Z,8.60
2022-11-03T23:13:35.031Z,8.40
2022-11-03T23:16:10.799Z,8.30
2022-11-03T23:18:57.544Z,8.80
2022-11-03T23:21:25.833Z,8.40
2022-11-03T23:24:13.214Z,8.10
2022-11-03T23:26:41.814Z,8.20
2022-11-03T23:29:10.820Z,8.70
2022-11-03T23:31:39.687Z,7.90
2022-11-03T23:34:08.942Z,9.90
2022-11-03T23:36:37.609Z,8.70
2022-11-03T23:39:06.622Z,10.40
2022-11-03T23:41:35.109Z,8.30
2022-11-03T23:44:03.509Z,8.20
2022-11-03T23:46:50.420Z,8.10
2022-11-03T23:49:18.803Z,8.10
2022-11-03T23:51:47.074Z,7.80
2022-11-03T23:54:15.444Z,8.00
2022-11-03T23:57:04.444Z,9.30
2022-11-03T23:59:34.033Z,8.00
